sensor_id;sensor_type;location;lat;lon;timestamp;P1;durP1;ratioP1;P2;durP2;ratioP2
4758;SDS011;2393;50.560;12.636;2022-11-15T00:00:56;4.10;;;3.10;;
4758;SDS011;2393;50.560;12.636;2022-11-15T00:03:43;3.13;;;2.70;;
4758;SDS011;2393;50.560;12.636;2022-11-15T00:06:31;6.55;;;3.22;;
4758;SDS011;2393;50.560;12.636;2022-11-15T00:09:20;5.00;;;3.27;;
4758;SDS011;2393;50.560;12.636;2022-11-15T00:12:07;3.70;;;3.00;;
4758;SDS011;2393;50.560;12.636;2022-11-15T00:14:53;5.47;;;2.53;;
4758;SDS011;2393;50.560;12.636;2022-11-15T00:17:40;2.67;;;2.45;;
4758;SDS011;2393;50.560;12.636;2022-11-15T00:20:27;2.60;;;2.40;;
4758;SDS011;2393;50.560;12.636;2022-11-15T00:23:14;2.90;;;2.30;;
4758;SDS011;2393;50.560;12.636;2022-11-15T00:26:02;4.05;;;2.67;;
4758;SDS011;2393;50.560;12.636;2022-11-15T00:28:51;3.45;;;2.92;;
4758;SDS011;2393;50.560;12.636;2022-11-15T00:31:38;4.70;;;2.92;;
4758;SDS011;2393;50.560;12.636;2022-11-15T00:34:25;6.47;;;2.80;;
4758;SDS011;2393;50.560;12.636;2022-11-15T00:37:11;2.20;;;2.10;;
4758;SDS011;2393;50.560;12.636;2022-11-15T00:39:58;3.13;;;2.55;;
4758;SDS011;2393;50.560;12.636;2022-11-15T00:42:46;4.22;;;2.50;;
4758;SDS011;2393;50.560;12.636;2022-11-15T00:45:33;5.38;;;2.38;;
4758;SDS011;2393;50.560;12.636;2022-11-15T00:48:20;4.78;;;2.70;;
4758;SDS011;2393;50.560;12.636;2022-11-15T00:51:07;2.92;;;1.98;;
4758;SDS011;2393;50.560;12.636;2022-11-15T00:53:53;5.00;;;2.45;;
4758;SDS011;2393;50.560;12.636;2022-11-15T00:56:40;2.92;;;2.63;;
4758;SDS011;2393;50.560;12.636;2022-11-15T00:59:31;4.65;;;2.85;;
4758;SDS011;2393;50.560;12.636;2022-11-15T01:02:18;9.18;;;3.20;;
4758;SDS011;2393;50.560;12.636;2022-11-15T01:05:05;6.63;;;3.03;;
4758;SDS011;2393;50.560;12.636;2022-11-15T01:07:53;4.35;;;2.90;;
4758;SDS011;2393;50.560;12.636;2022-11-15T01:10:40;7.18;;;3.40;;
4758;SDS011;2393;50.560;12.636;2022-11-15T01:13:29;3.38;;;3.05;;
4758;SDS011;2393;50.560;12.636;2022-11-15T01:16:18;5.05;;;2.67;;
4758;SDS011;2393;50.560;12.636;2022-11-15T01:19:05;5.20;;;2.70;;
4758;SDS011;2393;50.560;12.636;2022-11-15T01:21:52;4.40;;;2.60;;
4758;SDS011;2393;50.560;12.636;2022-11-15T01:24:39;5.82;;;3.58;;
4758;SDS011;2393;50.560;12.636;2022-11-15T01:27:26;5.38;;;2.30;;
4758;SDS011;2393;50.560;12.636;2022-11-15T01:30:13;2.80;;;2.35;;
4758;SDS011;2393;50.560;12.636;2022-11-15T01:33:02;3.65;;;2.10;;
4758;SDS011;2393;50.560;12.636;2022-11-15T01:35:49;2.83;;;2.60;;
4758;SDS011;2393;50.560;12.636;2022-11-15T01:38:35;2.40;;;2.20;;
4758;SDS011;2393;50.560;12.636;2022-11-15T01:41:23;2.95;;;2.30;;
4758;SDS011;2393;50.560;12.636;2022-11-15T01:47:27;4.15;;;2.53;;
4758;SDS011;2393;50.560;12.636;2022-11-15T01:50:19;3.33;;;2.40;;
4758;SDS011;2393;50.560;12.636;2022-11-15T01:53:10;3.10;;;2.17;;
4758;SDS011;2393;50.560;12.636;2022-11-15T01:55:58;4.93;;;2.03;;
4758;SDS011;2393;50.560;12.636;2022-11-15T01:58:48;2.97;;;2.30;;
4758;SDS011;2393;50.560;12.636;2022-11-15T02:01:37;7.18;;;1.70;;
4758;SDS011;2393;50.560;12.636;2022-11-15T02:04:25;3.72;;;2.33;;
4758;SDS011;2393;50.560;12.636;2022-11-15T02:07:16;3.40;;;2.35;;
4758;SDS011;2393;50.560;12.636;2022-11-15T02:10:06;2.50;;;2.30;;
4758;SDS011;2393;50.560;12.636;2022-11-15T02:12:55;3.97;;;2.10;;
4758;SDS011;2393;50.560;12.636;2022-11-15T02:15:44;4.43;;;2.65;;
4758;SDS011;2393;50.560;12.636;2022-11-15T02:18:44;3.17;;;2.50;;
4758;SDS011;2393;50.560;12.636;2022-11-15T02:21:36;2.95;;;2.10;;
4758;SDS011;2393;50.560;12.636;2022-11-15T02:24:42;4.57;;;2.40;;
4758;SDS011;2393;50.560;12.636;2022-11-15T02:27:55;2.30;;;2.05;;
4758;SDS011;2393;50.560;12.636;2022-11-15T02:30:59;3.28;;;1.75;;
4758;SDS011;2393;50.560;12.636;2022-11-15T02:33:53;2.45;;;2.35;;
4758;SDS011;2393;50.560;12.636;2022-11-15T02:36:48;4.35;;;2.83;;
4758;SDS011;2393;50.560;12.636;2022-11-15T02:39:44;1.80;;;1.70;;
4758;SDS011;2393;50.560;12.636;2022-11-15T02:42:35;2.47;;;2.28;;
4758;SDS011;2393;50.560;12.636;2022-11-15T02:45:50;3.47;;;2.60;;
4758;SDS011;2393;50.560;12.636;2022-11-15T02:48:44;2.47;;;2.17;;
4758;SDS011;2393;50.560;12.636;2022-11-15T02:51:32;3.47;;;2.05;;
4758;SDS011;2393;50.560;12.636;2022-11-15T02:54:20;2.55;;;2.33;;
4758;SDS011;2393;50.560;12.636;2022-11-15T02:57:10;2.03;;;1.70;;
4758;SDS011;2393;50.560;12.636;2022-11-15T03:00:04;3.33;;;1.65;;
4758;SDS011;2393;50.560;12.636;2022-11-15T03:06:06;2.33;;;2.13;;
4758;SDS011;2393;50.560;12.636;2022-11-15T03:09:02;4.63;;;2.20;;
4758;SDS011;2393;50.560;12.636;2022-11-15T03:11:54;2.22;;;2.03;;
4758;SDS011;2393;50.560;12.636;2022-11-15T03:14:48;3.42;;;1.90;;
4758;SDS011;2393;50.560;12.636;2022-11-15T03:17:41;2.55;;;2.20;;
4758;SDS011;2393;50.560;12.636;2022-11-15T03:20:34;2.15;;;1.98;;
4758;SDS011;2393;50.560;12.636;2022-11-15T03:23:23;2.45;;;1.70;;
4758;SDS011;2393;50.560;12.636;2022-11-15T03:26:12;14.77;;;2.40;;
4758;SDS011;2393;50.560;12.636;2022-11-15T03:29:03;4.63;;;2.30;;
4758;SDS011;2393;50.560;12.636;2022-11-15T03:31:56;3.95;;;2.10;;
4758;SDS011;2393;50.560;12.636;2022-11-15T03:34:47;1.70;;;1.60;;
4758;SDS011;2393;50.560;12.636;2022-11-15T03:37:39;5.57;;;2.17;;
4758;SDS011;2393;50.560;12.636;2022-11-15T03:40:33;3.63;;;1.80;;
4758;SDS011;2393;50.560;12.636;2022-11-15T03:43:24;2.30;;;2.10;;
4758;SDS011;2393;50.560;12.636;2022-11-15T03:46:20;3.90;;;2.03;;
4758;SDS011;2393;50.560;12.636;2022-11-15T03:49:11;2.80;;;2.10;;
4758;SDS011;2393;50.560;12.636;2022-11-15T03:52:01;4.82;;;2.65;;
4758;SDS011;2393;50.560;12.636;2022-11-15T03:54:50;2.03;;;1.90;;
4758;SDS011;2393;50.560;12.636;2022-11-15T03:57:41;1.73;;;1.45;;
4758;SDS011;2393;50.560;12.636;2022-11-15T04:00:28;3.67;;;2.20;;
4758;SDS011;2393;50.560;12.636;2022-11-15T04:03:15;2.15;;;1.95;;
4758;SDS011;2393;50.560;12.636;2022-11-15T04:06:01;2.20;;;2.10;;
4758;SDS011;2393;50.560;12.636;2022-11-15T04:08:48;2.40;;;1.90;;
4758;SDS011;2393;50.560;12.636;2022-11-15T04:11:35;2.13;;;2.00;;
4758;SDS011;2393;50.560;12.636;2022-11-15T04:14:23;1.95;;;1.85;;
4758;SDS011;2393;50.560;12.636;2022-11-15T04:17:10;2.10;;;1.90;;
4758;SDS011;2393;50.560;12.636;2022-11-15T04:19:57;2.17;;;2.00;;
4758;SDS011;2393;50.560;12.636;2022-11-15T04:23:02;2.70;;;1.77;;
4758;SDS011;2393;50.560;12.636;2022-11-15T04:26:08;2.45;;;1.95;;
4758;SDS011;2393;50.560;12.636;2022-11-15T04:28:57;2.97;;;2.17;;
4758;SDS011;2393;50.560;12.636;2022-11-15T04:32:03;3.45;;;2.70;;
4758;SDS011;2393;50.560;12.636;2022-11-15T04:34:51;2.10;;;1.98;;
4758;SDS011;2393;50.560;12.636;2022-11-15T04:37:38;2.20;;;1.70;;
4758;SDS011;2393;50.560;12.636;2022-11-15T04:40:32;4.20;;;2.58;;
4758;SDS011;2393;50.560;12.636;2022-11-15T04:43:19;2.03;;;1.88;;
4758;SDS011;2393;50.560;12.636;2022-11-15T04:46:06;2.25;;;2.05;;
4758;SDS011;2393;50.560;12.636;2022-11-15T04:48:54;2.90;;;2.17;;
4758;SDS011;2393;50.560;12.636;2022-11-15T04:51:43;3.05;;;2.55;;
4758;SDS011;2393;50.560;12.636;2022-11-15T04:54:30;2.88;;;2.25;;
4758;SDS011;2393;50.560;12.636;2022-11-15T04:57:17;2.78;;;2.15;;
4758;SDS011;2393;50.560;12.636;2022-11-15T05:00:05;3.85;;;2.08;;
4758;SDS011;2393;50.560;12.636;2022-11-15T05:02:54;3.72;;;1.90;;
4758;SDS011;2393;50.560;12.636;2022-11-15T05:05:59;1.77;;;1.67;;
4758;SDS011;2393;50.560;12.636;2022-11-15T05:08:47;1.52;;;1.40;;
4758;SDS011;2393;50.560;12.636;2022-11-15T05:11:33;1.70;;;1.60;;
4758;SDS011;2393;50.560;12.636;2022-11-15T05:14:20;1.70;;;1.58;;
4758;SDS011;2393;50.560;12.636;2022-11-15T05:17:07;2.70;;;2.50;;
4758;SDS011;2393;50.560;12.636;2022-11-15T05:19:54;3.00;;;1.92;;
4758;SDS011;2393;50.560;12.636;2022-11-15T05:22:43;9.60;;;2.28;;
4758;SDS011;2393;50.560;12.636;2022-11-15T05:25:29;8.65;;;2.90;;
4758;SDS011;2393;50.560;12.636;2022-11-15T05:28:16;1.38;;;1.38;;
4758;SDS011;2393;50.560;12.636;2022-11-15T05:31:04;6.28;;;1.98;;
4758;SDS011;2393;50.560;12.636;2022-11-15T05:33:52;1.77;;;1.67;;
4758;SDS011;2393;50.560;12.636;2022-11-15T05:36:41;3.10;;;2.08;;
4758;SDS011;2393;50.560;12.636;2022-11-15T05:39:31;3.88;;;2.08;;
4758;SDS011;2393;50.560;12.636;2022-11-15T05:42:18;4.90;;;2.20;;
4758;SDS011;2393;50.560;12.636;2022-11-15T05:45:06;1.60;;;1.50;;
4758;SDS011;2393;50.560;12.636;2022-11-15T05:47:55;1.90;;;1.50;;
4758;SDS011;2393;50.560;12.636;2022-11-15T05:50:43;2.05;;;1.70;;
4758;SDS011;2393;50.560;12.636;2022-11-15T05:53:32;3.53;;;1.50;;
4758;SDS011;2393;50.560;12.636;2022-11-15T05:56:22;2.28;;;2.13;;
4758;SDS011;2393;50.560;12.636;2022-11-15T05:59:09;2.95;;;2.15;;
4758;SDS011;2393;50.560;12.636;2022-11-15T06:01:56;8.02;;;2.20;;
4758;SDS011;2393;50.560;12.636;2022-11-15T06:04:43;2.35;;;1.85;;
4758;SDS011;2393;50.560;12.636;2022-11-15T06:07:30;2.05;;;1.95;;
4758;SDS011;2393;50.560;12.636;2022-11-15T06:10:16;2.45;;;2.13;;
4758;SDS011;2393;50.560;12.636;2022-11-15T06:13:05;2.10;;;2.00;;
4758;SDS011;2393;50.560;12.636;2022-11-15T06:15:54;7.15;;;2.45;;
4758;SDS011;2393;50.560;12.636;2022-11-15T06:18:42;2.03;;;1.83;;
4758;SDS011;2393;50.560;12.636;2022-11-15T06:21:28;2.63;;;2.40;;
4758;SDS011;2393;50.560;12.636;2022-11-15T06:24:15;3.22;;;1.95;;
4758;SDS011;2393;50.560;12.636;2022-11-15T06:27:02;6.82;;;2.38;;
4758;SDS011;2393;50.560;12.636;2022-11-15T06:29:50;2.15;;;1.95;;
4758;SDS011;2393;50.560;12.636;2022-11-15T06:32:37;3.58;;;1.95;;
4758;SDS011;2393;50.560;12.636;2022-11-15T06:35:24;2.00;;;1.80;;
4758;SDS011;2393;50.560;12.636;2022-11-15T06:38:11;1.75;;;1.63;;
4758;SDS011;2393;50.560;12.636;2022-11-15T06:41:00;4.57;;;2.00;;
4758;SDS011;2393;50.560;12.636;2022-11-15T06:43:48;2.83;;;2.45;;
4758;SDS011;2393;50.560;12.636;2022-11-15T06:46:36;3.10;;;2.80;;
4758;SDS011;2393;50.560;12.636;2022-11-15T06:49:23;2.00;;;1.90;;
4758;SDS011;2393;50.560;12.636;2022-11-15T06:52:10;4.55;;;2.60;;
4758;SDS011;2393;50.560;12.636;2022-11-15T06:54:56;2.13;;;1.92;;
4758;SDS011;2393;50.560;12.636;2022-11-15T06:57:47;1.70;;;1.50;;
4758;SDS011;2393;50.560;12.636;2022-11-15T07:00:34;2.25;;;1.65;;
4758;SDS011;2393;50.560;12.636;2022-11-15T07:03:23;3.10;;;1.45;;
4758;SDS011;2393;50.560;12.636;2022-11-15T07:06:10;2.80;;;2.53;;
4758;SDS011;2393;50.560;12.636;2022-11-15T07:08:57;2.38;;;1.83;;
4758;SDS011;2393;50.560;12.636;2022-11-15T07:11:57;2.22;;;1.95;;
4758;SDS011;2393;50.560;12.636;2022-11-15T07:14:51;1.98;;;1.58;;
4758;SDS011;2393;50.560;12.636;2022-11-15T07:17:38;3.10;;;2.00;;
4758;SDS011;2393;50.560;12.636;2022-11-15T07:20:26;8.80;;;4.28;;
4758;SDS011;2393;50.560;12.636;2022-11-15T07:23:13;6.43;;;4.07;;
4758;SDS011;2393;50.560;12.636;2022-11-15T07:26:00;14.25;;;6.45;;
4758;SDS011;2393;50.560;12.636;2022-11-15T07:28:47;19.70;;;7.43;;
4758;SDS011;2393;50.560;12.636;2022-11-15T07:31:35;27.33;;;9.20;;
4758;SDS011;2393;50.560;12.636;2022-11-15T07:34:21;18.70;;;7.00;;
4758;SDS011;2393;50.560;12.636;2022-11-15T07:37:10;11.90;;;5.53;;
4758;SDS011;2393;50.560;12.636;2022-11-15T07:39:56;11.63;;;4.55;;
4758;SDS011;2393;50.560;12.636;2022-11-15T07:42:43;12.52;;;5.90;;
4758;SDS011;2393;50.560;12.636;2022-11-15T07:45:40;11.25;;;5.60;;
4758;SDS011;2393;50.560;12.636;2022-11-15T07:48:28;9.70;;;5.43;;
4758;SDS011;2393;50.560;12.636;2022-11-15T07:51:28;6.07;;;4.50;;
4758;SDS011;2393;50.560;12.636;2022-11-15T07:54:16;6.95;;;3.90;;
4758;SDS011;2393;50.560;12.636;2022-11-15T07:57:03;8.90;;;5.18;;
4758;SDS011;2393;50.560;12.636;2022-11-15T07:59:51;10.73;;;5.15;;
4758;SDS011;2393;50.560;12.636;2022-11-15T08:02:38;12.00;;;5.05;;
4758;SDS011;2393;50.560;12.636;2022-11-15T08:05:26;12.73;;;5.38;;
4758;SDS011;2393;50.560;12.636;2022-11-15T08:08:13;10.48;;;5.00;;
4758;SDS011;2393;50.560;12.636;2022-11-15T08:11:04;10.57;;;4.00;;
4758;SDS011;2393;50.560;12.636;2022-11-15T08:13:51;9.65;;;3.97;;
4758;SDS011;2393;50.560;12.636;2022-11-15T08:16:38;5.25;;;4.25;;
4758;SDS011;2393;50.560;12.636;2022-11-15T08:19:26;4.07;;;3.60;;
4758;SDS011;2393;50.560;12.636;2022-11-15T08:22:13;5.83;;;3.10;;
4758;SDS011;2393;50.560;12.636;2022-11-15T08:25:00;6.33;;;3.60;;
4758;SDS011;2393;50.560;12.636;2022-11-15T08:27:56;4.57;;;3.37;;
4758;SDS011;2393;50.560;12.636;2022-11-15T08:30:45;4.57;;;2.97;;
4758;SDS011;2393;50.560;12.636;2022-11-15T08:36:46;5.50;;;3.07;;
4758;SDS011;2393;50.560;12.636;2022-11-15T08:39:33;6.10;;;3.30;;
4758;SDS011;2393;50.560;12.636;2022-11-15T08:42:20;3.20;;;2.80;;
4758;SDS011;2393;50.560;12.636;2022-11-15T08:45:11;8.67;;;2.73;;
4758;SDS011;2393;50.560;12.636;2022-11-15T08:47:58;2.23;;;2.03;;
4758;SDS011;2393;50.560;12.636;2022-11-15T08:50:47;3.50;;;2.60;;
4758;SDS011;2393;50.560;12.636;2022-11-15T08:53:34;3.37;;;2.00;;
4758;SDS011;2393;50.560;12.636;2022-11-15T08:56:21;3.70;;;2.50;;
4758;SDS011;2393;50.560;12.636;2022-11-15T08:59:08;2.00;;;1.90;;
4758;SDS011;2393;50.560;12.636;2022-11-15T09:01:57;8.20;;;2.60;;
4758;SDS011;2393;50.560;12.636;2022-11-15T09:04:43;3.57;;;2.53;;
4758;SDS011;2393;50.560;12.636;2022-11-15T09:07:30;3.47;;;2.73;;
4758;SDS011;2393;50.560;12.636;2022-11-15T09:10:17;3.13;;;2.63;;
4758;SDS011;2393;50.560;12.636;2022-11-15T09:13:04;2.67;;;2.40;;
4758;SDS011;2393;50.560;12.636;2022-11-15T09:15:51;3.50;;;2.77;;
4758;SDS011;2393;50.560;12.636;2022-11-15T09:18:39;3.03;;;2.60;;
4758;SDS011;2393;50.560;12.636;2022-11-15T09:21:26;2.03;;;1.80;;
4758;SDS011;2393;50.560;12.636;2022-11-15T09:24:14;1.70;;;1.60;;
4758;SDS011;2393;50.560;12.636;2022-11-15T09:27:02;1.97;;;1.30;;
4758;SDS011;2393;50.560;12.636;2022-11-15T09:29:54;3.53;;;1.17;;
4758;SDS011;2393;50.560;12.636;2022-11-15T09:32:47;2.27;;;1.73;;
4758;SDS011;2393;50.560;12.636;2022-11-15T09:35:35;2.87;;;1.17;;
4758;SDS011;2393;50.560;12.636;2022-11-15T09:38:22;5.70;;;1.20;;
4758;SDS011;2393;50.560;12.636;2022-11-15T09:41:29;1.37;;;1.10;;
4758;SDS011;2393;50.560;12.636;2022-11-15T09:44:38;3.23;;;1.10;;
4758;SDS011;2393;50.560;12.636;2022-11-15T09:47:36;1.10;;;1.10;;
4758;SDS011;2393;50.560;12.636;2022-11-15T09:50:42;2.40;;;0.60;;
4758;SDS011;2393;50.560;12.636;2022-11-15T09:53:20;1.50;;;1.00;;
4758;SDS011;2393;50.560;12.636;2022-11-15T09:56:16;2.70;;;1.03;;
4758;SDS011;2393;50.560;12.636;2022-11-15T09:58:51;1.03;;;0.90;;
4758;SDS011;2393;50.560;12.636;2022-11-15T10:01:32;1.40;;;0.90;;
4758;SDS011;2393;50.560;12.636;2022-11-15T10:04:06;1.33;;;1.00;;
4758;SDS011;2393;50.560;12.636;2022-11-15T10:06:40;4.50;;;2.13;;
4758;SDS011;2393;50.560;12.636;2022-11-15T10:09:15;1.30;;;1.20;;
4758;SDS011;2393;50.560;12.636;2022-11-15T10:11:49;1.70;;;1.60;;
4758;SDS011;2393;50.560;12.636;2022-11-15T10:14:18;1.40;;;0.93;;
4758;SDS011;2393;50.560;12.636;2022-11-15T10:19:52;2.67;;;0.97;;
4758;SDS011;2393;50.560;12.636;2022-11-15T10:22:37;1.63;;;0.60;;
4758;SDS011;2393;50.560;12.636;2022-11-15T10:25:18;2.70;;;1.10;;
4758;SDS011;2393;50.560;12.636;2022-11-15T10:27:56;0.90;;;0.53;;
4758;SDS011;2393;50.560;12.636;2022-11-15T10:30:34;0.60;;;0.60;;
4758;SDS011;2393;50.560;12.636;2022-11-15T10:38:56;4.23;;;0.93;;
4758;SDS011;2393;50.560;12.636;2022-11-15T10:41:30;3.27;;;0.90;;
4758;SDS011;2393;50.560;12.636;2022-11-15T10:44:22;0.97;;;0.53;;
4758;SDS011;2393;50.560;12.636;2022-11-15T10:47:04;1.00;;;0.90;;
4758;SDS011;2393;50.560;12.636;2022-11-15T10:49:34;2.90;;;0.90;;
4758;SDS011;2393;50.560;12.636;2022-11-15T10:52:15;0.83;;;0.50;;
4758;SDS011;2393;50.560;12.636;2022-11-15T10:54:48;1.23;;;0.60;;
4758;SDS011;2393;50.560;12.636;2022-11-15T10:57:21;0.60;;;0.40;;
4758;SDS011;2393;50.560;12.636;2022-11-15T10:59:53;2.40;;;0.43;;
4758;SDS011;2393;50.560;12.636;2022-11-15T11:02:26;0.73;;;0.50;;
4758;SDS011;2393;50.560;12.636;2022-11-15T11:05:01;1.37;;;0.50;;
4758;SDS011;2393;50.560;12.636;2022-11-15T11:07:31;0.67;;;0.67;;
4758;SDS011;2393;50.560;12.636;2022-11-15T11:10:05;2.33;;;0.50;;
4758;SDS011;2393;50.560;12.636;2022-11-15T11:13:12;0.57;;;0.57;;
4758;SDS011;2393;50.560;12.636;2022-11-15T11:15:42;2.03;;;0.87;;
4758;SDS011;2393;50.560;12.636;2022-11-15T11:18:16;0.57;;;0.57;;
4758;SDS011;2393;50.560;12.636;2022-11-15T11:20:51;0.67;;;0.50;;
4758;SDS011;2393;50.560;12.636;2022-11-15T11:23:36;0.80;;;0.50;;
4758;SDS011;2393;50.560;12.636;2022-11-15T11:26:18;1.23;;;0.90;;
4758;SDS011;2393;50.560;12.636;2022-11-15T11:29:11;0.67;;;0.50;;
4758;SDS011;2393;50.560;12.636;2022-11-15T11:31:50;3.30;;;1.07;;
4758;SDS011;2393;50.560;12.636;2022-11-15T11:37:27;1.00;;;0.70;;
4758;SDS011;2393;50.560;12.636;2022-11-15T11:40:06;2.87;;;1.00;;
4758;SDS011;2393;50.560;12.636;2022-11-15T11:42:47;2.20;;;0.50;;
4758;SDS011;2393;50.560;12.636;2022-11-15T11:45:30;3.70;;;0.70;;
4758;SDS011;2393;50.560;12.636;2022-11-15T11:48:13;1.03;;;0.40;;
4758;SDS011;2393;50.560;12.636;2022-11-15T11:50:48;2.50;;;0.80;;
4758;SDS011;2393;50.560;12.636;2022-11-15T11:53:18;0.90;;;0.63;;
4758;SDS011;2393;50.560;12.636;2022-11-15T11:58:57;0.90;;;0.50;;
4758;SDS011;2393;50.560;12.636;2022-11-15T12:01:30;1.27;;;0.80;;
4758;SDS011;2393;50.560;12.636;2022-11-15T12:04:04;1.63;;;0.70;;
4758;SDS011;2393;50.560;12.636;2022-11-15T12:09:38;0.90;;;0.50;;
4758;SDS011;2393;50.560;12.636;2022-11-15T12:12:12;0.60;;;0.60;;
4758;SDS011;2393;50.560;12.636;2022-11-15T12:14:51;1.43;;;0.70;;
4758;SDS011;2393;50.560;12.636;2022-11-15T12:20:23;1.40;;;1.00;;
4758;SDS011;2393;50.560;12.636;2022-11-15T12:22:53;1.43;;;0.70;;
4758;SDS011;2393;50.560;12.636;2022-11-15T12:25:26;0.60;;;0.60;;
4758;SDS011;2393;50.560;12.636;2022-11-15T12:27:59;0.90;;;0.90;;
4758;SDS011;2393;50.560;12.636;2022-11-15T12:30:41;1.30;;;0.80;;
4758;SDS011;2393;50.560;12.636;2022-11-15T12:33:29;0.67;;;0.63;;
4758;SDS011;2393;50.560;12.636;2022-11-15T12:36:00;5.17;;;0.90;;
4758;SDS011;2393;50.560;12.636;2022-11-15T12:38:50;0.70;;;0.70;;
4758;SDS011;2393;50.560;12.636;2022-11-15T12:41:25;1.10;;;0.90;;
4758;SDS011;2393;50.560;12.636;2022-11-15T12:43:54;0.50;;;0.30;;
4758;SDS011;2393;50.560;12.636;2022-11-15T12:49:42;0.50;;;0.40;;
4758;SDS011;2393;50.560;12.636;2022-11-15T12:52:12;4.10;;;0.70;;
4758;SDS011;2393;50.560;12.636;2022-11-15T12:54:54;1.37;;;0.70;;
4758;SDS011;2393;50.560;12.636;2022-11-15T12:57:28;7.20;;;0.57;;
4758;SDS011;2393;50.560;12.636;2022-11-15T13:00:02;0.80;;;0.60;;
4758;SDS011;2393;50.560;12.636;2022-11-15T13:02:55;1.00;;;0.57;;
4758;SDS011;2393;50.560;12.636;2022-11-15T13:08:43;1.53;;;0.60;;
4758;SDS011;2393;50.560;12.636;2022-11-15T13:17:24;2.73;;;0.73;;
4758;SDS011;2393;50.560;12.636;2022-11-15T13:19:57;4.97;;;0.90;;
4758;SDS011;2393;50.560;12.636;2022-11-15T13:22:27;0.77;;;0.60;;
4758;SDS011;2393;50.560;12.636;2022-11-15T13:25:26;0.97;;;0.60;;
4758;SDS011;2393;50.560;12.636;2022-11-15T13:28:10;2.80;;;2.00;;
4758;SDS011;2393;50.560;12.636;2022-11-15T13:30:48;0.80;;;0.70;;
4758;SDS011;2393;50.560;12.636;2022-11-15T13:33:18;1.33;;;1.13;;
4758;SDS011;2393;50.560;12.636;2022-11-15T13:35:50;3.37;;;0.70;;
4758;SDS011;2393;50.560;12.636;2022-11-15T13:38:25;1.73;;;0.73;;
4758;SDS011;2393;50.560;12.636;2022-11-15T13:40:56;2.10;;;0.83;;
4758;SDS011;2393;50.560;12.636;2022-11-15T13:43:27;1.93;;;0.53;;
4758;SDS011;2393;50.560;12.636;2022-11-15T13:46:12;0.97;;;0.70;;
4758;SDS011;2393;50.560;12.636;2022-11-15T13:48:43;2.70;;;0.60;;
4758;SDS011;2393;50.560;12.636;2022-11-15T13:51:18;2.03;;;0.73;;
4758;SDS011;2393;50.560;12.636;2022-11-15T13:53:54;0.93;;;0.90;;
4758;SDS011;2393;50.560;12.636;2022-11-15T13:56:24;1.13;;;0.50;;
4758;SDS011;2393;50.560;12.636;2022-11-15T13:58:54;1.43;;;0.80;;
4758;SDS011;2393;50.560;12.636;2022-11-15T14:01:23;0.53;;;0.53;;
4758;SDS011;2393;50.560;12.636;2022-11-15T14:03:57;1.43;;;1.00;;
4758;SDS011;2393;50.560;12.636;2022-11-15T14:06:29;0.70;;;0.50;;
4758;SDS011;2393;50.560;12.636;2022-11-15T14:14:55;3.07;;;1.07;;
4758;SDS011;2393;50.560;12.636;2022-11-15T14:17:34;2.40;;;0.80;;
4758;SDS011;2393;50.560;12.636;2022-11-15T14:20:19;1.37;;;0.73;;
4758;SDS011;2393;50.560;12.636;2022-11-15T14:22:56;1.33;;;1.03;;
4758;SDS011;2393;50.560;12.636;2022-11-15T14:25:26;2.40;;;1.10;;
4758;SDS011;2393;50.560;12.636;2022-11-15T14:31:00;4.23;;;1.50;;
4758;SDS011;2393;50.560;12.636;2022-11-15T14:33:29;3.57;;;1.80;;
4758;SDS011;2393;50.560;12.636;2022-11-15T14:36:02;2.60;;;1.90;;
4758;SDS011;2393;50.560;12.636;2022-11-15T14:38:34;4.80;;;1.30;;
4758;SDS011;2393;50.560;12.636;2022-11-15T14:41:03;1.33;;;1.33;;
4758;SDS011;2393;50.560;12.636;2022-11-15T14:43:32;2.83;;;1.27;;
4758;SDS011;2393;50.560;12.636;2022-11-15T14:46:00;0.90;;;0.90;;
4758;SDS011;2393;50.560;12.636;2022-11-15T14:48:29;1.73;;;1.33;;
4758;SDS011;2393;50.560;12.636;2022-11-15T14:50:58;4.73;;;1.27;;
4758;SDS011;2393;50.560;12.636;2022-11-15T14:53:26;2.23;;;1.43;;
4758;SDS011;2393;50.560;12.636;2022-11-15T14:55:56;1.20;;;0.53;;
4758;SDS011;2393;50.560;12.636;2022-11-15T14:58:24;2.37;;;0.90;;
4758;SDS011;2393;50.560;12.636;2022-11-15T15:00:52;1.37;;;0.87;;
4758;SDS011;2393;50.560;12.636;2022-11-15T15:03:21;2.10;;;1.10;;
4758;SDS011;2393;50.560;12.636;2022-11-15T15:05:49;0.70;;;0.70;;
4758;SDS011;2393;50.560;12.636;2022-11-15T15:08:18;1.63;;;1.53;;
4758;SDS011;2393;50.560;12.636;2022-11-15T15:10:46;3.47;;;0.97;;
4758;SDS011;2393;50.560;12.636;2022-11-15T15:13:17;1.00;;;0.90;;
4758;SDS011;2393;50.560;12.636;2022-11-15T15:15:47;1.07;;;0.70;;
4758;SDS011;2393;50.560;12.636;2022-11-15T15:18:16;0.90;;;0.77;;
4758;SDS011;2393;50.560;12.636;2022-11-15T15:20:47;0.80;;;0.80;;
4758;SDS011;2393;50.560;12.636;2022-11-15T15:23:26;0.90;;;0.60;;
4758;SDS011;2393;50.560;12.636;2022-11-15T15:25:57;3.70;;;1.57;;
4758;SDS011;2393;50.560;12.636;2022-11-15T15:28:27;3.33;;;0.97;;
4758;SDS011;2393;50.560;12.636;2022-11-15T15:31:00;1.10;;;1.00;;
4758;SDS011;2393;50.560;12.636;2022-11-15T15:33:29;2.00;;;0.97;;
4758;SDS011;2393;50.560;12.636;2022-11-15T15:35:57;1.00;;;0.90;;
4758;SDS011;2393;50.560;12.636;2022-11-15T15:38:27;7.33;;;1.27;;
4758;SDS011;2393;50.560;12.636;2022-11-15T15:40:56;1.73;;;1.17;;
4758;SDS011;2393;50.560;12.636;2022-11-15T15:43:27;1.43;;;0.90;;
4758;SDS011;2393;50.560;12.636;2022-11-15T15:45:56;1.33;;;1.10;;
4758;SDS011;2393;50.560;12.636;2022-11-15T15:48:24;3.30;;;1.40;;
4758;SDS011;2393;50.560;12.636;2022-11-15T15:50:52;0.90;;;0.90;;
4758;SDS011;2393;50.560;12.636;2022-11-15T15:53:21;1.90;;;1.00;;
4758;SDS011;2393;50.560;12.636;2022-11-15T15:55:49;1.37;;;1.27;;
4758;SDS011;2393;50.560;12.636;2022-11-15T15:58:17;2.70;;;1.33;;
4758;SDS011;2393;50.560;12.636;2022-11-15T16:00:47;2.20;;;2.00;;
4758;SDS011;2393;50.560;12.636;2022-11-15T16:03:15;2.40;;;2.17;;
4758;SDS011;2393;50.560;12.636;2022-11-15T16:05:44;2.33;;;2.00;;
4758;SDS011;2393;50.560;12.636;2022-11-15T16:08:16;2.23;;;1.63;;
4758;SDS011;2393;50.560;12.636;2022-11-15T16:10:46;2.07;;;1.80;;
4758;SDS011;2393;50.560;12.636;2022-11-15T16:13:14;2.40;;;1.60;;
4758;SDS011;2393;50.560;12.636;2022-11-15T16:15:44;2.13;;;1.93;;
4758;SDS011;2393;50.560;12.636;2022-11-15T16:18:15;5.70;;;2.50;;
4758;SDS011;2393;50.560;12.636;2022-11-15T16:20:45;2.97;;;2.27;;
4758;SDS011;2393;50.560;12.636;2022-11-15T16:23:16;1.33;;;1.23;;
4758;SDS011;2393;50.560;12.636;2022-11-15T16:25:47;2.37;;;1.40;;
4758;SDS011;2393;50.560;12.636;2022-11-15T16:28:17;1.50;;;1.40;;
4758;SDS011;2393;50.560;12.636;2022-11-15T16:30:49;2.10;;;1.70;;
4758;SDS011;2393;50.560;12.636;2022-11-15T16:33:27;1.97;;;1.30;;
4758;SDS011;2393;50.560;12.636;2022-11-15T16:35:56;2.10;;;1.57;;
4758;SDS011;2393;50.560;12.636;2022-11-15T16:38:24;1.70;;;1.23;;
4758;SDS011;2393;50.560;12.636;2022-11-15T16:40:52;3.50;;;3.20;;
4758;SDS011;2393;50.560;12.636;2022-11-15T16:43:21;3.83;;;3.00;;
4758;SDS011;2393;50.560;12.636;2022-11-15T16:45:51;2.53;;;1.63;;
4758;SDS011;2393;50.560;12.636;2022-11-15T16:48:21;10.47;;;5.93;;
4758;SDS011;2393;50.560;12.636;2022-11-15T16:50:51;8.23;;;5.57;;
4758;SDS011;2393;50.560;12.636;2022-11-15T16:53:22;7.40;;;3.50;;
4758;SDS011;2393;50.560;12.636;2022-11-15T16:55:51;2.40;;;2.20;;
4758;SDS011;2393;50.560;12.636;2022-11-15T16:58:21;8.17;;;3.90;;
4758;SDS011;2393;50.560;12.636;2022-11-15T17:00:52;10.60;;;5.20;;
4758;SDS011;2393;50.560;12.636;2022-11-15T17:03:21;3.40;;;2.13;;
4758;SDS011;2393;50.560;12.636;2022-11-15T17:05:51;3.13;;;2.03;;
4758;SDS011;2393;50.560;12.636;2022-11-15T17:08:19;4.07;;;1.97;;
4758;SDS011;2393;50.560;12.636;2022-11-15T17:10:49;3.37;;;2.20;;
4758;SDS011;2393;50.560;12.636;2022-11-15T17:13:18;3.23;;;1.77;;
4758;SDS011;2393;50.560;12.636;2022-11-15T17:15:46;4.00;;;1.87;;
4758;SDS011;2393;50.560;12.636;2022-11-15T17:18:16;4.87;;;1.77;;
4758;SDS011;2393;50.560;12.636;2022-11-15T17:20:47;2.47;;;2.07;;
4758;SDS011;2393;50.560;12.636;2022-11-15T17:23:16;7.27;;;3.30;;
4758;SDS011;2393;50.560;12.636;2022-11-15T17:25:44;4.67;;;2.83;;